Terminal Aerodrome Forecast
Issued by NWS St Louis, MO

Home | Current Version | Previous Version | Text Only | Print | Product List | Glossary Off
Versions: 1 2 3 4 5 6 7 8 9 10 11 12 13 14 15 16 17 18 19 20 21 22 23 24 25

000
FTUS43 KLSX 291140
TAFSTL
TAF
KSTL 291140Z 2912/3018 17005KT P6SM SCT040 BKN120
     FM292200 18008KT P6SM VCTS SCT050CB BKN120
     FM300200 VRB05KT P6SM SCT050 BKN100=

USA.gov is the U.S. government's official web portal to all federal, state and local government web resources and services.